Date,TemperatureHighF,TemperatureAvgF,TemperatureLowF,DewpointHighF,DewpointAvgF,DewpointLowF,HumidityHigh,HumidityAvg,HumidityLow,PressureMaxIn,PressureMinIn,WindSpeedMaxMPH,WindSpeedAvgMPH,GustSpeedMaxMPH,PrecipitationSumIn
2013-1-1,53.2,37.4,26.8,28.5,21.7,14.8,83,56,29,30.02,29.92,21,5,21,0.00
2013-1-2,50.2,34.7,22.6,22.8,15.7,11.0,81,50,22,30.03,29.90,19,5,19,0.00
2013-1-3,32.4,29.7,26.8,30.0,24.5,14.4,94,82,47,30.11,29.96,19,8,19,0.00
2013-1-4,42.8,31.1,24.4,38.0,26.8,21.6,96,85,63,30.14,30.05,7,2,7,0.05
2013-1-5,39.0,28.3,20.8,32.2,24.9,18.3,97,87,72,30.16,30.07,22,5,22,0.00
2013-1-6,53.2,33.9,17.4,34.4,26.3,15.5,94,76,45,30.19,29.94,11,3,11,0.00
2013-1-7,57.4,42.4,32.7,35.6,31.4,27.9,85,67,43,29.93,29.69,18,9,18,0.01
2013-1-8,61.2,47.3,35.6,36.8,31.2,24.5,87,58,26,29.80,29.69,18,4,18,0.01
2013-1-9,60.1,46.3,36.3,29.4,25.0,19.0,63,44,27,30.07,29.90,19,8,19,0.00
2013-1-10,62.2,45.9,30.9,37.8,29.9,25.4,85,57,28,29.91,29.72,11,5,11,0.00
2013-1-11,56.7,45.8,38.8,36.9,22.8,9.1,86,43,25,29.73,29.64,40,16,40,2.00
2013-1-12,43.2,35.6,24.4,12.9,6.5,-2.3,55,30,17,29.87,29.68,33,15,33,0.00
2013-1-13,48.4,31.2,16.7,15.2,7.9,-0.3,73,41,16,29.93,29.77,14,4,14,0.00
2013-1-14,46.8,33.1,22.8,23.8,13.0,-1.3,87,48,18,29.87,29.77,23,7,23,0.00
2013-1-15,42.6,30.2,22.1,18.2,10.3,1.6,68,45,20,30.01,29.85,16,5,16,0.00
2013-1-16,51.3,34.5,20.8,9.3,1.9,-2.9,42,27,11,30.19,30.09,11,4,11,0.00
2013-1-17,60.3,39.9,20.7,24.1,18.2,5.8,61,44,16,30.27,30.13,11,4,11,0.00
2013-1-18,67.3,43.8,29.1,28.1,21.2,15.9,75,45,16,30.17,30.02,13,4,13,0.00
2013-1-19,70.3,46.0,25.9,26.4,19.7,14.7,73,40,13,30.13,30.00,11,3,11,0.00
2013-1-20,71.6,46.4,27.5,19.8,13.7,5.7,58,32,10,30.08,29.93,10,3,10,0.00
2013-1-21,72.5,49.2,33.4,16.3,10.7,2.8,42,24,10,30.06,29.94,14,4,14,0.00
2013-1-22,72.9,50.3,32.4,19.6,11.9,6.3,43,24,10,30.09,29.99,14,4,14,0.00
2013-1-23,75.0,51.7,28.9,21.4,15.4,6.8,50,27,10,30.16,30.04,13,3,13,0.00
2013-1-24,63.3,21.3,0.0,21.9,17.9,14.0,49,19,16,30.11,30.07,6,1,6,0.00
2013-1-25,66.9,55.4,45.7,42.3,39.8,33.1,67,56,40,30.07,29.95,18,4,18,0.00
2013-1-26,51.4,48.6,45.1,42.4,40.6,38.7,81,74,67,29.96,29.88,6,2,6,0.00
2013-1-27,64.4,54.2,46.0,49.0,42.7,38.0,88,66,45,29.88,29.81,22,7,22,0.00
2013-1-28,67.1,55.0,38.8,42.6,37.1,31.3,92,54,30,29.82,29.66,43,16,43,0.02
2013-1-29,45.3,39.9,32.9,36.1,22.3,10.6,88,52,27,29.85,29.66,49,28,49,2.61
2013-1-30,50.5,40.5,30.9,24.2,14.2,-1.0,69,38,12,30.05,29.84,28,13,28,0.00
2013-1-31,63.9,44.4,28.2,21.7,15.9,7.8,54,33,17,30.08,29.99,11,3,11,0.00
2013-2-1,69.8,47.3,25.7,20.7,16.2,11.7,62,33,11,30.08,29.95,17,4,17,0.00
2013-2-2,74.7,51.2,28.6,23.7,13.6,4.3,54,26,10,30.16,30.03,24,5,24,0.00
2013-2-3,56.3,43.3,36.7,19.3,15.8,13.2,41,33,24,30.08,29.98,8,4,8,0.00
2013-2-4,68.4,55.6,43.0,36.5,32.6,28.8,57,42,30,29.90,29.80,18,7,18,0.00
2013-2-5,70.9,54.9,37.8,36.1,28.1,22.3,65,39,17,29.91,29.77,10,4,10,0.00
2013-2-6,68.4,56.6,34.7,33.6,28.6,17.5,69,37,16,29.83,29.72,26,8,26,0.00
2013-2-7,70.7,55.0,42.3,36.1,28.8,20.7,65,39,18,29.94,29.82,14,5,14,0.00
2013-2-8,71.1,55.3,40.8,31.1,25.1,9.0,55,34,10,29.94,29.68,26,8,26,0.00
2013-2-9,62.4,50.1,37.6,26.8,17.1,2.8,47,29,10,29.79,29.57,54,20,54,1.41
2013-2-10,55.6,42.9,32.5,21.4,14.1,3.1,58,34,13,29.84,29.73,34,13,34,0.00
2013-2-11,59.4,38.6,22.6,29.2,11.4,4.7,60,34,14,29.82,29.69,26,6,26,0.00
2013-2-12,41.9,36.8,32.7,33.5,30.3,26.9,82,77,61,29.85,29.78,29,18,29,0.00
2013-2-13,55.4,42.2,24.8,15.4,7.5,1.7,50,25,11,29.99,29.85,18,5,18,0.00
2013-2-14,65.5,45.3,24.8,16.1,11.2,5.2,45,27,11,29.95,29.82,24,5,24,0.00
2013-2-15,64.2,46.7,35.2,31.9,23.7,12.9,71,43,20,30.13,29.95,17,6,17,0.00
2013-2-16,66.4,46.4,27.7,25.1,14.8,5.1,69,34,10,30.20,29.95,11,3,11,0.00
2013-2-17,60.4,37.6,22.1,12.0,8.2,2.7,46,31,10,29.96,29.82,13,3,13,0.00
2013-2-18,64.6,53.1,46.2,10.9,1.4,-4.0,21,12,10,29.88,29.72,25,8,25,0.00
2013-2-19,60.3,49.6,35.4,47.7,22.2,-0.3,92,46,11,29.86,29.67,24,8,24,0.11
2013-2-20,61.3,48.4,36.1,44.6,32.6,17.0,93,62,19,29.67,29.42,62,19,62,3.32
2013-2-21,51.6,40.4,31.6,27.6,24.8,20.7,75,55,30,29.79,29.59,49,21,49,1.05
2013-2-22,55.9,44.2,28.9,29.7,23.1,18.8,83,46,24,29.87,29.74,36,12,36,0.00
2013-2-23,56.7,41.7,30.0,24.3,17.5,11.7,59,40,19,29.90,29.83,16,4,16,0.00
2013-2-24,61.0,55.4,45.3,23.2,18.2,11.4,38,24,15,29.62,29.46,41,18,41,0.15
2013-2-25,54.7,41.0,28.0,18.8,11.8,4.0,59,34,13,29.90,29.74,22,9,22,0.00
2013-2-26,65.1,50.6,33.1,14.9,2.0,-7.9,39,15,10,29.87,29.64,21,0,21,0.00
2013-2-27,42.3,39.0,36.1,-0.9,-4.0,-6.5,20,16,13,29.92,29.87,1,0,1,0.00
2013-2-28,60.8,45.1,25.5,17.1,8.3,-0.2,51,25,10,30.12,30.00,3,0,3,0.00
2013-3-1,70.0,51.6,34.3,10.8,4.9,-1.9,27,16,10,30.14,30.03,4,0,4,0.00
2013-3-2,76.8,54.8,32.2,17.9,12.8,7.7,40,21,10,30.19,29.99,13,0,13,0.00
2013-3-3,79.7,51.4,0.0,21.1,14.8,5.9,42,18,10,30.00,29.72,17,0,17,0.26
2013-3-4,78.3,63.7,52.2,21.4,12.9,3.1,28,14,10,29.88,29.62,51,1,51,0.40
2013-3-5,66.2,53.0,40.6,28.3,23.9,17.6,57,34,18,30.13,29.88,1,0,1,0.00
2013-3-6,79.7,61.1,44.6,24.3,21.4,15.4,43,25,10,30.02,29.80,1,0,1,0.00
2013-3-7,80.6,66.4,48.4,25.7,19.0,8.6,40,18,10,29.87,29.74,27,0,27,0.00
2013-3-8,70.9,63.1,57.4,50.2,35.5,13.9,67,37,13,29.81,29.65,39,0,39,0.07
2013-3-9,58.8,47.8,40.6,37.8,28.3,18.8,70,49,24,29.81,29.65,29,0,29,0.25
2013-3-10,60.8,46.8,32.7,33.9,25.0,19.3,81,46,21,29.97,29.79,3,0,3,0.00
2013-3-11,68.4,50.9,28.9,22.8,15.8,6.7,56,29,10,30.00,29.84,13,0,13,0.00
2013-3-12,78.3,57.9,37.9,24.0,14.5,6.8,37,20,10,30.05,29.87,5,0,5,0.00
2013-3-13,53.4,51.1,47.7,24.8,24.0,22.9,39,35,31,30.07,30.05,0,0,0,0.00
2013-3-25,63.3,48.7,32.7,9.7,2.3,-9.3,27,16,10,30.00,29.79,0,0,0,0.00
2013-3-26,72.9,54.9,36.7,13.0,10.0,4.9,32,18,10,30.04,29.83,0,0,0,0.02
2013-3-27,78.1,63.0,46.9,19.2,15.5,11.2,30,17,10,29.91,29.79,0,0,0,0.00
2013-3-28,81.9,68.6,52.5,21.1,16.6,9.2,29,14,10,29.94,29.82,0,0,0,0.00
2013-3-29,83.3,71.3,59.4,21.0,15.1,5.7,18,12,10,29.95,29.82,0,0,0,0.00
2013-3-30,83.1,70.4,53.1,20.9,13.5,4.5,17,11,10,29.93,29.79,1,0,1,0.00
2013-3-31,84.0,74.1,52.2,24.6,18.2,12.5,25,12,10,29.88,29.77,1,0,1,0.00
2013-4-1,84.4,70.2,49.3,31.4,19.7,5.7,38,17,10,29.87,29.70,1,0,1,0.00
2013-4-2,81.0,70.0,61.2,21.9,14.7,4.2,19,12,10,29.78,29.62,4,0,4,0.02
2013-4-3,77.2,59.8,41.4,37.2,29.7,3.2,73,37,10,29.93,29.75,2,0,2,0.02
2013-4-4,83.7,64.5,42.1,33.9,23.3,4.8,55,26,10,30.02,29.88,2,0,2,0.00
2013-4-7,83.5,71.9,58.5,21.2,17.6,13.3,21,13,10,29.77,29.60,0,0,0,0.00
2013-4-8,84.2,73.4,63.5,29.5,18.1,12.3,25,13,10,29.65,29.38,0,0,0,0.73
2013-4-9,71.1,58.3,49.3,41.0,25.5,13.8,71,32,11,29.72,29.38,0,0,0,0.89
2013-4-10,64.8,55.0,44.1,31.4,22.9,6.8,57,32,10,29.78,29.68,1,0,1,0.00
2013-4-11,74.7,57.5,40.6,22.9,15.3,6.1,43,23,10,29.79,29.64,0,0,0,0.00
2013-4-12,83.7,66.9,46.6,26.0,14.7,5.4,24,14,10,29.75,29.63,1,0,1,0.00
2013-4-13,84.9,75.6,52.7,22.3,16.3,8.5,24,11,10,29.70,29.57,36,7,36,0.27
2013-4-14,81.9,71.2,61.5,23.8,17.2,9.9,20,13,10,29.68,29.54,49,22,49,0.67
2013-4-15,84.6,73.0,61.9,30.9,20.0,10.4,28,15,10,29.71,29.58,36,19,36,0.00
2013-4-16,86.7,75.0,63.5,23.7,17.4,10.5,18,11,10,29.74,29.59,41,18,41,0.13
2013-4-17,81.5,69.1,52.7,22.9,15.4,10.1,31,13,10,29.79,29.52,59,22,59,1.58
2013-4-18,67.6,55.1,40.8,23.2,11.4,-4.8,43,20,10,29.99,29.79,30,10,30,0.00
2013-4-19,59.0,44.9,37.2,2.1,-4.5,-8.4,17,12,10,30.09,29.99,17,5,17,0.00
2013-4-20,80.8,70.0,37.2,18.9,11.0,-13.4,13,10,10,29.85,29.68,36,14,36,0.00
2013-4-21,84.7,69.5,48.9,22.2,11.6,-2.4,17,11,10,29.95,29.79,30,7,30,0.00
2013-4-22,88.3,78.3,54.0,24.9,17.4,2.1,12,10,10,29.86,29.66,30,13,30,0.01
2013-4-24,77.4,61.1,40.6,28.7,23.6,15.9,50,28,10,29.95,29.83,12,6,12,0.00
2013-4-25,85.8,69.7,53.8,40.1,29.1,13.9,40,25,10,29.95,29.72,26,10,26,0.00
2013-4-26,86.2,70.6,56.7,23.2,15.0,3.5,22,12,10,29.97,29.81,23,9,23,0.00
2013-4-27,88.2,71.4,50.5,27.5,18.5,2.4,36,15,10,30.00,29.82,10,4,10,0.00
2013-4-28,89.4,73.5,53.4,36.4,20.3,5.0,25,14,10,29.88,29.70,11,4,11,0.00
2013-4-29,93.2,75.0,54.1,42.5,25.2,12.2,43,18,10,29.78,29.61,21,7,21,0.00
2013-4-30,92.1,80.2,60.3,27.7,18.7,3.4,10,10,10,29.69,29.60,33,12,33,0.00
2013-5-1,88.9,75.1,64.6,25.4,14.9,6.8,11,10,10,29.84,29.67,30,12,30,0.00
2013-5-2,70.3,56.6,45.1,36.5,26.6,9.0,60,35,10,30.21,29.84,29,16,29,0.00
2013-5-18,88.3,80.0,68.5,24.8,19.0,12.4,12,10,10,29.84,29.69,34,16,34,0.00
2013-5-19,88.3,76.5,61.3,25.9,18.9,10.4,18,12,10,29.82,29.63,26,12,26,0.00
2013-5-20,89.8,78.1,62.8,27.7,22.6,13.2,25,13,10,29.81,29.62,34,14,34,0.00
2013-5-21,88.7,74.9,59.9,32.8,21.2,9.2,32,15,10,29.86,29.72,25,7,25,0.02
2013-5-22,94.1,78.9,54.5,29.2,19.0,7.7,19,11,10,29.79,29.67,22,8,22,0.02
2013-5-23,97.5,83.5,69.3,51.5,26.8,10.3,50,15,10,29.83,29.66,27,9,27,0.04
2013-5-24,96.6,86.1,64.0,52.1,38.2,25.1,64,22,10,29.91,29.74,23,8,23,0.05
2013-5-25,96.4,76.9,66.9,56.7,45.8,14.9,64,40,10,29.89,29.75,25,7,25,0.01
2013-5-26,95.7,81.6,65.1,51.7,36.3,19.7,59,26,10,29.89,29.76,34,11,34,0.00
2013-5-27,93.9,83.7,69.8,28.8,21.4,10.7,10,10,10,29.82,29.67,21,6,21,0.00
2013-5-28,93.6,82.4,65.5,28.9,20.5,7.5,10,10,10,29.69,29.53,35,14,35,0.00
2013-5-29,88.9,79.4,65.8,29.6,22.0,12.2,19,12,10,29.68,29.56,40,20,40,0.00
2013-5-30,93.4,80.7,67.5,35.6,28.8,23.4,24,16,10,29.77,29.64,33,15,33,0.00
2013-5-31,96.3,85.5,72.0,34.6,28.7,20.7,22,13,10,29.81,29.66,30,12,30,0.00
2013-6-1,99.9,86.8,73.2,42.1,26.4,13.4,26,11,10,29.85,29.70,28,11,28,0.00
2013-6-2,98.4,81.0,69.1,61.9,49.2,41.8,64,34,18,29.91,29.68,33,13,33,0.01
2013-6-3,98.2,81.8,63.0,58.9,43.7,16.5,78,36,10,29.85,29.68,34,9,34,0.00
2013-6-4,81.9,71.5,63.7,45.1,34.7,14.4,47,29,10,29.81,29.75,7,3,7,0.00
2013-6-5,97.5,87.6,77.0,32.1,27.8,17.0,18,12,10,29.82,29.68,26,11,26,0.00
2013-6-6,96.4,82.5,67.3,48.9,39.3,16.5,49,23,10,29.85,29.72,37,10,37,0.11
2013-6-7,97.5,79.7,69.1,60.5,52.0,32.0,71,42,15,29.88,29.68,41,8,41,0.08
2013-6-8,104.0,84.4,63.7,56.0,43.5,25.2,69,32,10,29.80,29.61,32,10,32,0.00
2013-6-9,105.3,88.9,73.9,52.5,42.0,18.9,42,21,10,29.82,29.65,31,11,32,0.00
2013-6-10,109.0,89.7,73.8,51.4,46.1,35.4,43,25,10,29.88,29.73,21,8,21,0.00
2013-6-11,107.4,91.6,75.9,46.1,38.2,23.3,32,17,10,29.88,29.72,14,7,14,0.01
2013-6-12,106.9,91.2,72.7,53.0,38.4,23.1,32,17,10,29.88,29.74,18,8,18,0.00
2013-6-13,99.3,86.4,72.1,60.3,54.1,39.4,59,36,13,29.89,29.75,23,12,23,0.00
2013-6-14,99.7,81.4,68.4,65.3,56.7,49.5,67,46,19,29.87,29.73,27,7,27,0.13
2013-6-15,103.5,89.4,65.7,67.4,51.5,36.6,92,33,11,29.90,29.75,17,5,17,0.05
2013-6-16,104.9,88.5,72.1,55.4,46.1,36.0,52,26,11,29.92,29.77,27,7,27,0.00
2013-6-17,105.1,87.7,75.6,60.5,50.7,34.0,54,31,10,29.88,29.75,31,8,31,0.00
2013-6-18,101.8,85.1,69.3,61.9,53.4,34.9,66,39,10,29.92,29.74,21,8,21,0.00
2013-6-19,103.1,91.0,76.6,61.9,47.5,29.4,55,29,10,29.81,29.66,30,12,30,0.00
2013-6-20,101.5,89.6,78.1,52.8,43.2,30.3,39,23,10,29.85,29.71,36,13,36,0.00
2013-6-21,100.6,87.1,70.9,55.9,47.2,32.6,58,30,10,29.90,29.73,30,9,30,0.00
2013-6-22,100.9,88.3,74.5,58.0,39.5,19.5,46,23,10,29.88,29.69,34,10,34,0.00
2013-6-23,101.5,89.6,73.4,54.1,33.3,18.5,50,16,10,29.83,29.68,30,9,30,0.00
2013-6-24,100.6,90.2,78.1,43.9,30.5,22.3,20,12,10,29.85,29.72,27,10,27,0.00
2013-6-25,100.2,90.0,80.6,41.0,28.0,18.7,21,11,10,29.88,29.77,30,11,30,0.00
2013-6-26,105.8,90.8,78.8,38.1,26.8,17.7,10,10,10,29.91,29.80,34,12,34,0.00
2013-6-27,111.9,95.1,81.3,42.6,30.4,19.5,15,10,10,29.92,29.79,21,8,21,0.01
2013-6-28,102.9,90.3,74.5,42.1,36.4,30.0,28,16,10,30.02,29.86,23,8,23,0.00
2013-6-29,101.3,84.6,73.2,47.7,42.6,35.9,35,24,11,29.96,29.91,11,3,11,0.00
2013-6-30,102.0,87.5,73.8,62.5,48.4,41.4,68,29,13,29.93,29.75,34,9,34,0.07
2013-7-1,85.5,73.9,65.5,63.8,60.8,56.6,91,67,38,30.02,29.90,29,10,29,0.05
2013-7-2,88.5,78.9,68.0,62.7,53.5,46.7,81,47,24,30.00,29.88,101,9,101,0.01
2013-7-3,97.3,78.8,66.2,63.1,56.1,43.7,88,53,17,29.99,29.76,30,6,30,0.06
2013-7-4,99.7,81.7,64.9,61.4,53.8,41.5,85,46,14,29.85,29.70,17,5,17,0.00
2013-7-5,102.6,88.2,71.8,55.2,47.5,33.9,52,28,10,29.83,29.67,18,7,18,0.00
2013-7-6,104.2,90.1,75.7,59.6,52.7,41.2,56,31,13,29.81,29.67,30,8,30,0.00
2013-7-7,107.1,90.4,77.2,60.1,52.4,44.2,51,29,13,29.84,29.73,31,9,31,0.00
2013-7-8,96.8,83.6,75.4,59.0,53.7,43.4,56,37,18,29.93,29.83,18,6,18,0.00
2013-7-9,83.5,82.2,81.1,58.0,57.7,57.0,45,43,41,29.95,29.92,14,7,14,0.00
2013-7-10,99.5,87.6,75.2,61.7,57.5,52.1,63,39,22,29.98,29.80,14,8,14,0.00
2013-7-11,99.1,86.6,76.6,62.1,57.6,53.6,55,38,22,29.93,29.80,17,7,17,0.00
2013-7-12,100.8,86.1,74.5,64.4,55.1,47.1,69,38,17,29.90,29.76,29,8,29,0.00
2013-7-13,102.6,92.4,70.5,59.9,50.4,41.9,61,25,15,29.91,29.76,19,8,19,0.00
2013-7-14,104.2,89.8,76.5,60.4,50.4,43.2,49,28,14,29.90,29.70,29,6,29,0.01
2013-7-15,86.9,75.4,71.1,64.2,59.3,52.0,77,58,42,29.97,29.81,29,11,29,0.02
2013-7-16,90.9,77.2,67.6,57.1,52.7,45.6,65,45,23,30.01,29.91,19,8,19,0.00
2013-7-17,80.1,71.7,64.9,63.5,57.6,54.9,92,62,46,30.07,30.00,21,9,21,0.05
2013-7-18,66.6,65.9,65.1,64.4,63.9,63.3,95,93,91,30.07,30.00,11,6,11,0.01
2013-7-19,87.3,75.3,66.6,66.6,64.7,61.3,95,72,44,29.99,29.84,14,6,14,0.02
2013-7-20,91.8,83.3,67.3,66.1,62.5,58.6,93,51,37,29.90,29.77,19,7,19,0.04
2013-7-21,98.4,81.8,68.7,65.0,60.8,51.3,81,53,22,29.88,29.74,27,6,27,0.05
2013-7-22,99.1,81.9,69.6,66.4,61.8,54.0,78,54,24,29.88,29.76,27,6,27,0.02
2013-7-23,98.8,78.6,69.1,67.8,63.1,55.0,83,63,24,29.88,29.77,30,7,30,0.35
2013-7-24,96.6,82.4,69.8,68.4,64.1,56.9,91,59,28,29.92,29.81,27,7,27,0.28
2013-7-25,93.2,77.0,65.3,70.7,66.6,61.7,96,73,43,30.03,29.92,17,5,17,0.38
2013-7-26,94.1,80.4,71.6,70.7,67.5,61.0,88,67,38,30.01,29.94,24,6,24,0.20
2013-7-27,89.8,74.9,65.1,69.9,66.7,63.2,96,78,47,30.06,29.87,24,6,24,0.53
2013-7-28,94.5,80.6,68.2,71.6,66.4,59.8,93,64,37,29.90,29.77,34,6,34,0.15
2013-7-29,99.3,83.9,69.6,69.9,62.5,49.3,92,54,21,29.93,29.84,19,6,19,0.01
2013-7-30,104.7,84.9,72.7,68.6,60.6,51.2,73,47,18,30.03,29.91,25,6,25,0.06
2013-11-15,70.5,58.3,44.6,52.3,47.1,37.5,88,68,42,29.81,29.64,30,11,30,0.08
2013-11-16,74.8,65.5,54.7,51.7,45.8,38.6,89,51,27,29.73,29.60,32,19,32,0.04
2013-11-17,70.2,60.5,52.2,45.5,41.4,36.5,71,51,30,29.93,29.74,28,12,28,0.04
2013-11-18,77.2,59.7,45.1,42.0,38.2,35.6,69,48,23,30.01,29.91,11,4,11,0.08
2013-11-19,75.4,58.7,43.3,45.5,39.7,34.5,78,52,29,29.91,29.74,14,3,14,0.06
2013-11-20,72.3,60.8,48.2,43.7,40.5,36.2,73,49,30,29.80,29.69,20,7,20,0.09
2013-11-21,75.2,62.8,50.0,44.7,40.7,37.8,64,45,28,29.87,29.78,17,6,17,0.02